Terminal Aerodrome Forecast
Issued by NWS

Home | Current Version | Previous Version | Text Only | Print | Product List | Glossary On
Versions: 1 2 3 4 5 6 7 8 9 10 11 12 13 14 15 16
962
FTUS43 KDLH 132340
TAFBRD
TAF
KBRD 132340Z 1400/1424 15005KT P6SM SKC
     FM140500 15008KT P6SM OVC050
     FM141000 16010KT 6SM -SN SCT015 OVC025
     FM141200 15010KT 3SM -SN OVC015
     FM141600 15011G17KT 2SM -SN OVC015
     FM142000 17011G17KT 1 1/2SM -SN OVC015=

USA.gov is the U.S. government's official web portal to all federal, state and local government web resources and services.